KHQM/HQM METAR and TAF weather

Enter ICAO airport designator
Station Type Date Time Source
KHQM METAR 2019/06/26 16:06 UTC NOAA

KHQM 261606Z AUTO 16003KT 8SM BKN016 BKN021 14/11 A2991 RMK AO2 T01390111


Station Type Date Time Source
KHQM Decoded METAR 2019/06/26 16:06 UTC NOAA

HOQUIAM BOWERMAN AIRPORT, WA, United States (KHQM) 46-58N 123-56W 7M
Jun 26, 2019 - 12:06 PM EDT / 2019.06.26 1606 UTC
Wind: from the SSE (160 degrees) at 3 MPH (3 KT):0
Visibility: 8 mile(s):0
Sky conditions: mostly cloudy
Temperature: 57.0 F (13.9 C)
Dew Point: 52.0 F (11.1 C)
Relative Humidity: 83%
Pressure (altimeter): 29.91 in. Hg (1012 hPa)
ob: KHQM 261606Z AUTO 16003KT 8SM BKN016 BKN021 14/11 A2991 RMK AO2 T01390111
cycle: 16

Station Type Date Time Source
KHQM TAF 2019/06/26 15:51 UTC NOAA

TAF
AMD KHQM 261449Z 2615/2712 VRB04KT P6SM SCT050
FM261800 21006KT P6SM BKN070
FM262000 23008KT P6SM BKN050 OVC090
FM270000 25010KT P6SM OVC050
FM270600 21003KT P6SM OVC030
FM270700 17003KT P6SM OVC015

Example: see airport list